Time;durP1;ratioP1;P1;durP2;ratioP2;P2;SDS_P1;SDS_P2;PMS_P1;PMS_P2;Temp;Humidity;BMP_temperature;BMP_pressure;BME280_temperature;BME280_humidity;BME280_pressure;Samples;Min_cycle;Max_cycle;Signal;HPM_P1;HPM_P2
2022/03/25 00:01:03;;;;;;;0.30;0.30;;;;;;;8.57;39.92;95702.69;5091504;28;20497;-53
2022/03/25 00:03:32;;;;;;;1.33;0.80;;;;;;;7.80;39.85;95693.19;5091583;28;20923;-53
2022/03/25 00:06:00;;;;;;;0.40;0.30;;;;;;;7.68;40.16;95701.22;5091069;28;20435;-53
2022/03/25 00:08:29;;;;;;;0.30;0.20;;;;;;;7.55;40.11;95690.97;5091211;28;20472;-53
2022/03/25 00:10:58;;;;;;;0.30;0.20;;;;;;;7.46;38.47;95618.59;5091736;28;20436;-53
2022/03/25 00:13:26;;;;;;;0.30;0.20;;;;;;;8.24;38.42;95692.22;5094976;28;20485;-53
2022/03/25 00:15:57;;;;;;;0.30;0.20;;;;;;;7.85;38.51;95691.44;5095743;28;20432;-53
2022/03/25 00:18:26;;;;;;;0.30;0.20;;;;;;;8.14;39.82;95700.81;5095474;28;20464;-54
2022/03/25 00:20:54;;;;;;;0.70;0.70;;;;;;;8.49;38.95;95692.56;5095475;28;20425;-53
2022/03/25 00:23:23;;;;;;;0.30;0.20;;;;;;;7.95;40.02;95701.31;5095327;28;20519;-54
2022/03/25 00:25:52;;;;;;;1.80;1.70;;;;;;;8.17;40.55;95691.59;5095257;28;20432;-54
2022/03/25 00:28:21;;;;;;;0.30;0.20;;;;;;;8.44;48.12;95689.84;5095372;28;20432;-53
2022/03/25 00:30:50;;;;;;;0.33;0.30;;;;;;;8.46;40.86;95693.03;5095198;28;20440;-53
2022/03/25 00:33:21;;;;;;;1.10;0.40;;;;;;;8.55;42.82;95680.22;5095563;28;20900;-54
2022/03/25 00:35:49;;;;;;;0.40;0.30;;;;;;;8.67;42.80;95684.31;5095077;28;20424;-53
2022/03/25 00:38:18;;;;;;;0.40;0.30;;;;;;;8.33;42.19;95688.13;5095150;28;20451;-53
2022/03/25 00:40:47;;;;;;;0.47;0.33;;;;;;;8.12;41.95;95673.84;5095372;28;20431;-54
2022/03/25 00:43:17;;;;;;;0.40;0.30;;;;;;;8.34;41.96;95678.38;5094865;28;20432;-54
2022/03/25 00:45:46;;;;;;;0.30;0.20;;;;;;;8.39;41.89;95673.94;5094943;28;20477;-53
2022/03/25 00:48:15;;;;;;;0.30;0.20;;;;;;;8.43;42.72;95671.59;5094590;28;20436;-54
2022/03/25 00:50:45;;;;;;;1.20;1.20;;;;;;;8.56;40.82;95664.09;5094198;28;20432;-54
2022/03/25 00:53:14;;;;;;;0.30;0.20;;;;;;;8.61;39.90;95664.16;5094672;28;20541;-54
2022/03/25 00:55:42;;;;;;;0.30;0.20;;;;;;;8.82;41.73;95671.25;5095305;28;20424;-54
2022/03/25 00:58:10;;;;;;;2.30;2.20;;;;;;;7.29;41.24;95671.31;5094750;28;20471;-54
2022/03/25 01:00:39;;;;;;;0.83;0.83;;;;;;;6.54;44.03;95680.53;5094544;28;20423;-54
2022/03/25 01:03:09;;;;;;;0.30;0.20;;;;;;;6.48;44.48;95607.78;5094408;28;20440;-54
2022/03/25 01:05:37;;;;;;;0.30;0.20;;;;;;;7.55;44.96;95683.06;5094444;28;20429;-54
2022/03/25 01:08:09;;;;;;;0.30;0.20;;;;;;;7.10;42.11;95655.97;5094366;28;20528;-54
2022/03/25 01:10:38;;;;;;;2.10;0.60;;;;;;;6.24;44.64;95681.56;5094478;28;20486;-54
2022/03/25 01:13:06;;;;;;;0.60;0.30;;;;;;;6.85;43.76;95674.81;5094400;28;20494;-54
2022/03/25 01:15:35;;;;;;;0.40;0.30;;;;;;;7.33;42.31;95674.28;5093790;28;20420;-54
2022/03/25 01:18:04;;;;;;;0.30;0.30;;;;;;;7.04;47.10;95665.63;5094223;28;20544;-54
2022/03/25 01:20:33;;;;;;;0.30;0.20;;;;;;;7.48;45.54;95658.69;5094316;28;20431;-54
2022/03/25 01:23:01;;;;;;;0.30;0.20;;;;;;;7.64;45.41;95650.75;5093367;28;20490;-54
2022/03/25 01:25:31;;;;;;;0.30;0.30;;;;;;;7.53;46.24;95651.66;5093866;28;20423;-54
2022/03/25 01:28:00;;;;;;;0.40;0.40;;;;;;;7.54;48.59;95650.63;5094404;28;20497;-54
2022/03/25 01:30:29;;;;;;;1.17;0.50;;;;;;;7.59;43.37;95645.41;5094487;28;20424;-54
2022/03/25 01:32:57;;;;;;;0.30;0.20;;;;;;;6.63;42.62;95645.69;5093967;28;20429;-54
2022/03/25 01:35:26;;;;;;;0.30;0.20;;;;;;;7.28;44.39;95642.56;5094062;28;20416;-54
2022/03/25 01:37:54;;;;;;;0.30;0.30;;;;;;;6.82;43.37;95656.84;5094190;28;20532;-54
2022/03/25 01:40:23;;;;;;;0.60;0.33;;;;;;;4.74;47.16;95663.91;5093599;28;20440;-54
2022/03/25 01:42:52;;;;;;;1.13;1.13;;;;;;;4.33;49.24;95669.91;5093833;28;20428;-54
2022/03/25 01:45:31;;;;;;;0.30;0.20;;;;;;;4.59;49.60;95654.81;5093949;28;20420;-54
2022/03/25 01:48:00;;;;;;;0.70;0.70;;;;;;;5.43;48.69;95659.78;5093773;28;20432;-54
2022/03/25 01:50:29;;;;;;;0.40;0.30;;;;;;;6.12;45.17;95656.31;5093744;28;20890;-54
2022/03/25 01:52:58;;;;;;;0.30;0.20;;;;;;;6.49;44.07;95654.13;5093566;28;20433;-54
2022/03/25 01:55:27;;;;;;;14.63;1.90;;;;;;;6.68;43.81;95658.19;5093777;28;20470;-54
2022/03/25 01:57:59;;;;;;;0.60;0.60;;;;;;;7.08;48.53;95650.16;5093119;28;20468;-54
2022/03/25 02:00:29;;;;;;;1.57;0.40;;;;;;;7.22;45.10;95649.59;5093915;28;20421;-54
2022/03/25 02:02:58;;;;;;;0.97;0.40;;;;;;;7.43;49.67;95648.88;5093390;28;20445;-54
2022/03/25 02:05:26;;;;;;;0.40;0.30;;;;;;;7.03;45.53;95638.47;5093003;28;20435;-54
2022/03/25 02:07:55;;;;;;;0.30;0.20;;;;;;;6.73;45.87;95650.38;5093193;28;20468;-54
2022/03/25 02:10:24;;;;;;;1.37;1.33;;;;;;;6.87;46.06;95636.66;5093349;28;20904;-54
2022/03/25 02:12:52;;;;;;;1.73;0.53;;;;;;;6.00;46.79;95655.50;5093607;28;20592;-54
2022/03/25 02:15:31;;;;;;;0.83;0.83;;;;;;;6.54;47.64;95641.03;5092412;28;20543;-54
2022/03/25 02:18:02;;;;;;;0.30;0.20;;;;;;;6.69;53.06;95652.66;5093404;28;20622;-54
2022/03/25 02:20:31;;;;;;;0.30;0.20;;;;;;;6.53;46.77;95645.50;5093383;28;20485;-54
2022/03/25 02:23:01;;;;;;;0.33;0.27;;;;;;;6.97;51.96;95643.91;5093401;28;20495;-54
2022/03/25 02:25:30;;;;;;;0.30;0.20;;;;;;;6.57;45.29;95646.66;5092641;28;20482;-53
2022/03/25 02:27:59;;;;;;;0.40;0.30;;;;;;;6.46;45.17;95649.31;5092951;28;20908;-52
2022/03/25 02:30:29;;;;;;;0.30;0.20;;;;;;;6.28;50.17;95635.31;5093011;28;20428;-52
2022/03/25 02:33:01;;;;;;;0.37;0.30;;;;;;;6.55;50.66;95648.72;5091857;28;20433;-53
2022/03/25 02:35:48;;;;;;;0.30;0.20;;;;;;;6.83;49.44;95645.28;5092411;28;20762;-53
2022/03/25 02:38:19;;;;;;;0.30;0.20;;;;;;;6.89;46.98;95644.31;5092058;28;20471;-53
2022/03/25 02:40:48;;;;;;;0.30;0.20;;;;;;;6.95;49.54;95643.38;5092594;28;20877;-53
2022/03/25 02:43:17;;;;;;;0.50;0.50;;;;;;;7.14;43.06;95652.63;5092004;28;20485;-53
2022/03/25 02:45:46;;;;;;;4.47;3.80;;;;;;;6.06;45.27;95658.03;5092562;28;20511;-53
2022/03/25 02:48:14;;;;;;;0.30;0.30;;;;;;;6.35;45.72;95657.03;5092571;28;20527;-54
2022/03/25 02:50:43;;;;;;;0.30;0.20;;;;;;;5.96;46.36;95667.53;5092561;28;20963;-54
2022/03/25 02:53:11;;;;;;;0.30;0.20;;;;;;;5.74;46.50;95659.44;5092520;28;20949;-54
2022/03/25 02:55:41;;;;;;;2.53;0.60;;;;;;;4.93;49.46;95665.41;5091825;28;20988;-54
2022/03/25 02:58:10;;;;;;;0.87;0.87;;;;;;;5.31;48.75;95656.34;5092757;28;20491;-54
2022/03/25 03:00:38;;;;;;;5.73;1.60;;;;;;;5.50;47.39;95655.19;5092543;28;20460;-53
2022/03/25 03:03:08;;;;;;;0.50;0.50;;;;;;;4.71;49.87;95661.72;5092369;28;20528;-54
2022/03/25 03:05:36;;;;;;;0.40;0.40;;;;;;;4.73;50.13;95654.41;5092321;28;20552;-54
2022/03/25 03:08:06;;;;;;;0.40;0.30;;;;;;;4.44;50.83;95660.50;5092073;28;20511;-54
2022/03/25 03:10:35;;;;;;;0.40;0.40;;;;;;;4.55;49.93;95651.88;5092276;28;20429;-54
2022/03/25 03:13:06;;;;;;;2.20;2.00;;;;;;;5.49;50.81;95654.41;5091903;28;20432;-54
2022/03/25 03:15:36;;;;;;;0.40;0.40;;;;;;;6.33;56.51;95653.84;5092290;28;20460;-53
2022/03/25 03:18:05;;;;;;;0.40;0.40;;;;;;;5.06;50.74;95661.78;5092399;28;20515;-53
2022/03/25 03:20:34;;;;;;;0.30;0.30;;;;;;;5.06;50.66;95667.84;5091649;28;20436;-54
2022/03/25 03:23:02;;;;;;;0.50;0.50;;;;;;;4.94;50.78;95667.03;5092470;28;20508;-54
2022/03/25 03:25:31;;;;;;;0.93;0.93;;;;;;;5.46;49.14;95661.97;5092061;28;20460;-53
2022/03/25 03:28:00;;;;;;;2.10;0.60;;;;;;;5.76;47.15;95650.28;5092043;28;20482;-53
2022/03/25 03:30:31;;;;;;;0.30;0.20;;;;;;;5.54;48.17;95665.03;5091917;28;20438;-54
2022/03/25 03:32:59;;;;;;;0.40;0.30;;;;;;;5.47;47.89;95661.72;5092291;28;20433;-54
2022/03/25 03:35:28;;;;;;;0.37;0.23;;;;;;;6.17;47.12;95677.47;5092219;28;20519;-54
2022/03/25 03:37:56;;;;;;;0.53;0.53;;;;;;;6.04;45.87;95668.00;5092101;28;20460;-54
2022/03/25 03:40:25;;;;;;;0.30;0.20;;;;;;;6.25;52.05;95669.97;5091734;28;21034;-54
2022/03/25 03:42:54;;;;;;;0.30;0.20;;;;;;;6.29;52.67;95665.88;5091771;28;20472;-53
2022/03/25 03:45:22;;;;;;;0.30;0.20;;;;;;;6.37;52.41;95659.44;5091758;28;20435;-53
2022/03/25 03:47:53;;;;;;;0.30;0.20;;;;;;;5.63;49.50;95665.50;5091266;28;20471;-53
2022/03/25 03:50:21;;;;;;;0.40;0.40;;;;;;;5.99;51.08;95673.16;5091546;28;20531;-53
2022/03/25 03:52:49;;;;;;;0.30;0.20;;;;;;;6.15;49.23;95654.00;5092006;28;20520;-53
2022/03/25 03:55:18;;;;;;;0.40;0.30;;;;;;;6.21;49.38;95662.78;5091855;28;20451;-53
2022/03/25 03:57:47;;;;;;;0.40;0.30;;;;;;;6.20;49.79;95669.88;5091648;28;20454;-53
2022/03/25 04:00:16;;;;;;;0.37;0.23;;;;;;;5.30;48.92;95675.75;5091417;28;20472;-53
2022/03/25 04:02:45;;;;;;;31.97;0.60;;;;;;;5.00;50.22;95676.66;5091921;28;20450;-53
2022/03/25 04:05:15;;;;;;;1.07;1.07;;;;;;;5.91;51.28;95677.97;5091928;28;20846;-53
2022/03/25 04:07:45;;;;;;;0.30;0.20;;;;;;;6.26;51.37;95668.16;5091349;28;20456;-54
2022/03/25 04:10:14;;;;;;;0.50;0.50;;;;;;;5.76;48.97;95673.16;5091865;28;20433;-54
2022/03/25 04:12:43;;;;;;;1.23;1.23;;;;;;;5.71;51.23;95673.03;5091886;28;20857;-52
2022/03/25 04:15:13;;;;;;;0.50;0.50;;;;;;;5.71;55.51;95673.03;5091608;28;20456;-54
2022/03/25 04:17:42;;;;;;;0.30;0.20;;;;;;;5.85;49.27;95663.91;5091315;28;20976;-53
2022/03/25 04:20:14;;;;;;;0.50;0.20;;;;;;;6.14;49.41;95662.13;5091355;28;20500;-53
2022/03/25 04:22:45;;;;;;;0.40;0.40;;;;;;;6.30;47.91;95670.09;5091229;28;20489;-53
2022/03/25 04:25:14;;;;;;;0.30;0.20;;;;;;;6.31;46.39;95669.06;5091023;28;20936;-53
2022/03/25 04:27:50;;;;;;;0.30;0.27;;;;;;;6.45;46.56;95664.34;5091339;28;20421;-54
2022/03/25 04:30:21;;;;;;;2.10;0.60;;;;;;;6.57;47.46;95666.91;5091210;28;20497;-53
2022/03/25 04:32:49;;;;;;;0.30;0.20;;;;;;;6.58;45.88;95671.16;5091316;28;20452;-53
2022/03/25 04:35:18;;;;;;;0.30;0.20;;;;;;;6.27;47.41;95672.41;5091360;28;20978;-53
2022/03/25 04:37:48;;;;;;;0.80;0.40;;;;;;;5.89;47.11;95665.06;5091567;28;20493;-53
2022/03/25 04:40:19;;;;;;;0.70;0.70;;;;;;;4.98;49.99;95676.06;5091286;28;20460;-53
2022/03/25 04:42:49;;;;;;;1.70;0.80;;;;;;;5.47;48.32;95674.06;5090960;28;20427;-54
2022/03/25 04:45:17;;;;;;;0.70;0.70;;;;;;;5.60;48.16;95679.91;5091222;28;20952;-54
2022/03/25 04:47:46;;;;;;;0.60;0.33;;;;;;;5.41;49.12;95674.97;5091286;28;20489;-54
2022/03/25 04:50:15;;;;;;;0.40;0.30;;;;;;;5.12;49.84;95681.91;5090880;28;20424;-54
2022/03/25 04:52:44;;;;;;;0.37;0.30;;;;;;;4.87;51.36;95676.84;5091404;28;20448;-54
2022/03/25 04:55:18;;;;;;;0.40;0.33;;;;;;;5.10;51.49;95690.03;5091274;28;20503;-54
2022/03/25 04:57:47;;;;;;;0.40;0.30;;;;;;;5.29;49.07;95684.69;5091630;28;20470;-54
2022/03/25 05:00:16;;;;;;;0.43;0.40;;;;;;;5.34;49.54;95693.47;5094563;28;20917;-54
2022/03/25 05:02:45;;;;;;;0.30;0.20;;;;;;;5.17;49.47;95697.81;5094654;28;20908;-54
2022/03/25 05:05:14;;;;;;;0.30;0.30;;;;;;;4.23;52.91;95692.44;5094561;28;20527;-54
2022/03/25 05:07:43;;;;;;;0.43;0.30;;;;;;;4.31;52.38;95647.53;5094346;28;20527;-54
2022/03/25 05:10:13;;;;;;;1.07;1.07;;;;;;;4.89;51.27;95697.63;5094417;28;20432;-54
2022/03/25 05:12:44;;;;;;;0.30;0.20;;;;;;;5.01;50.54;95712.38;5094544;28;20437;-54
2022/03/25 05:15:13;;;;;;;0.30;0.20;;;;;;;5.17;50.38;95697.81;5094391;28;20519;-54
2022/03/25 05:17:46;;;;;;;0.30;0.30;;;;;;;5.26;50.00;95699.09;5094183;28;20503;-54
2022/03/25 05:20:17;;;;;;;1.37;0.40;;;;;;;5.39;49.77;95688.34;5094269;28;20488;-54
2022/03/25 05:22:46;;;;;;;1.23;1.23;;;;;;;5.38;50.20;95693.84;5094504;28;20797;-54
2022/03/25 05:25:15;;;;;;;0.30;0.20;;;;;;;5.59;48.94;95691.44;5094186;28;20959;-54
2022/03/25 05:27:46;;;;;;;1.73;0.53;;;;;;;5.48;49.65;95692.25;5094070;28;20515;-54
2022/03/25 05:30:16;;;;;;;0.90;0.60;;;;;;;5.53;49.47;95692.38;5094130;28;20836;-54
2022/03/25 05:32:44;;;;;;;1.53;1.10;;;;;;;5.63;49.73;95678.63;5093813;28;20425;-54
2022/03/25 05:35:19;;;;;;;1.07;1.07;;;;;;;6.19;50.85;95686.72;5094171;28;20522;-54
2022/03/25 05:37:48;;;;;;;0.40;0.33;;;;;;;5.90;52.37;95687.69;5093645;28;20450;-54
2022/03/25 05:40:17;;;;;;;0.60;0.60;;;;;;;6.42;49.74;95679.78;5093901;28;20472;-54
2022/03/25 05:42:48;;;;;;;0.50;0.50;;;;;;;6.56;47.87;95674.00;5093475;28;20429;-54
2022/03/25 05:45:18;;;;;;;1.33;1.17;;;;;;;6.75;46.60;95674.63;5093904;28;20503;-55
2022/03/25 05:47:47;;;;;;;1.17;1.17;;;;;;;6.94;46.60;95673.38;5093510;28;20459;-55
2022/03/25 05:50:15;;;;;;;0.30;0.30;;;;;;;7.03;46.49;95677.22;5093064;28;20456;-55
2022/03/25 05:52:44;;;;;;;0.50;0.50;;;;;;;7.71;48.01;95679.63;5093581;28;20449;-54
2022/03/25 05:55:14;;;;;;;3.50;1.20;;;;;;;7.79;44.33;95667.88;5093453;28;20420;-54
2022/03/25 05:57:42;;;;;;;0.87;0.87;;;;;;;8.49;42.82;95671.44;5093752;28;20486;-55
2022/03/25 06:00:14;;;;;;;1.13;1.07;;;;;;;8.36;42.93;95663.88;5093440;28;20471;-55
2022/03/25 06:02:43;;;;;;;3.43;3.23;;;;;;;8.50;42.99;95662.44;5093432;28;20459;-54
2022/03/25 06:05:13;;;;;;;1.00;0.90;;;;;;;9.28;41.54;95661.09;5093709;28;20450;-53
2022/03/25 06:07:44;;;;;;;1.17;1.17;;;;;;;9.19;42.55;95681.09;5092887;28;20425;-55
2022/03/25 06:10:13;;;;;;;1.40;1.40;;;;;;;10.08;41.71;95660.84;5092644;28;20861;-54
2022/03/25 06:12:42;;;;;;;7.83;7.13;;;;;;;9.01;42.08;95676.97;5093338;28;20463;-54
2022/03/25 06:15:12;;;;;;;6.33;2.43;;;;;;;8.16;44.38;95682.06;5093136;28;20945;-54
2022/03/25 06:17:48;;;;;;;3.17;2.77;;;;;;;7.72;45.95;95681.22;5093150;28;20468;-54
2022/03/25 06:20:19;;;;;;;2.43;1.50;;;;;;;8.23;45.71;95680.06;5093143;28;20634;-54
2022/03/25 06:22:49;;;;;;;2.10;0.97;;;;;;;8.94;43.43;95686.97;5093383;28;20456;-54
2022/03/25 06:25:19;;;;;;;1.10;1.10;;;;;;;8.91;44.44;95690.09;5093020;28;20448;-54
2022/03/25 06:27:49;;;;;;;4.67;3.93;;;;;;;8.77;44.67;95686.25;5093063;28;20464;-53
2022/03/25 06:30:20;;;;;;;2.87;2.67;;;;;;;8.40;44.53;95691.38;5093032;28;20487;-52
2022/03/25 06:32:48;;;;;;;1.77;1.53;;;;;;;8.87;43.66;95691.66;5092408;28;20432;-52
2022/03/25 06:35:17;;;;;;;1.27;1.17;;;;;;;9.43;41.55;95685.03;5092856;28;20468;-52
2022/03/25 06:37:46;;;;;;;1.67;0.90;;;;;;;9.78;41.94;95689.78;5092852;28;20483;-51
2022/03/25 06:40:16;;;;;;;0.77;0.77;;;;;;;9.85;41.81;95682.41;5092690;28;20519;-51
2022/03/25 06:42:45;;;;;;;2.07;1.97;;;;;;;10.38;41.64;95678.75;5092762;28;20467;-51
2022/03/25 06:45:15;;;;;;;3.13;0.70;;;;;;;11.03;38.46;95681.59;5092954;28;20505;-52
2022/03/25 06:47:46;;;;;;;3.33;2.50;;;;;;;11.30;39.05;95676.06;5092755;28;20460;-52
2022/03/25 06:50:16;;;;;;;1.67;0.60;;;;;;;11.97;36.03;95659.84;5092688;28;20467;-52
2022/03/25 06:52:45;;;;;;;1.70;0.90;;;;;;;11.82;36.52;95668.63;5092630;28;20932;-52
2022/03/25 06:55:15;;;;;;;0.97;0.97;;;;;;;11.49;37.12;95674.47;5092641;28;20640;-52
2022/03/25 06:57:48;;;;;;;1.60;1.50;;;;;;;12.00;35.86;95664.63;5092364;28;20428;-52
2022/03/25 07:00:18;;;;;;;1.20;1.20;;;;;;;11.95;35.21;95669.94;5092530;28;20427;-52
2022/03/25 07:02:49;;;;;;;0.63;0.63;;;;;;;12.41;33.61;95660.78;5092219;28;20434;-52
2022/03/25 07:05:18;;;;;;;0.60;0.60;;;;;;;12.22;34.63;95666.97;5092219;28;20917;-52
2022/03/25 07:07:47;;;;;;;3.40;1.20;;;;;;;12.54;34.74;95670.03;5091989;28;20432;-52
2022/03/25 07:10:17;;;;;;;0.80;0.60;;;;;;;13.00;33.78;95657.31;5091945;28;20454;-53
2022/03/25 07:12:46;;;;;;;1.03;1.03;;;;;;;13.55;32.77;95650.81;5092027;28;20520;-52
2022/03/25 07:15:15;;;;;;;1.20;1.10;;;;;;;14.21;32.46;95650.97;5092288;28;20451;-53
2022/03/25 07:17:44;;;;;;;0.53;0.43;;;;;;;14.44;31.46;95647.53;5092025;28;20507;-53
2022/03/25 07:20:15;;;;;;;1.80;1.70;;;;;;;14.93;30.91;95639.94;5092135;28;20417;-53
2022/03/25 07:22:46;;;;;;;1.87;1.77;;;;;;;14.83;32.08;95642.75;5092232;28;20435;-54
2022/03/25 07:25:16;;;;;;;2.90;2.03;;;;;;;14.95;30.75;95632.44;5092018;28;20421;-55
2022/03/25 07:27:45;;;;;;;1.83;1.73;;;;;;;14.86;30.03;95636.03;5091942;28;20475;-55
2022/03/25 07:33:01;;;;;;;0.50;0.50;;;;;;;16.43;27.69;95633.16;5091854;28;20524;-57
2022/03/25 07:35:31;;;;;;;0.60;0.50;;;;;;;16.03;27.59;95635.81;5092093;28;20855;-59
2022/03/25 07:37:59;;;;;;;0.80;0.60;;;;;;;16.95;26.92;95623.03;5092307;28;20444;-60
2022/03/25 07:40:28;;;;;;;1.67;1.57;;;;;;;17.15;25.46;95626.00;5091797;28;20464;-60
2022/03/25 07:42:58;;;;;;;0.50;0.47;;;;;;;18.05;25.91;95622.22;5091810;28;20535;-58
2022/03/25 07:45:26;;;;;;;1.20;1.00;;;;;;;18.07;26.38;95616.53;5091836;28;20420;-57
2022/03/25 07:47:55;;;;;;;28.07;1.30;;;;;;;18.71;24.80;95615.06;5091926;28;20424;-57
2022/03/25 07:50:25;;;;;;;1.07;1.07;;;;;;;18.97;23.78;95610.53;5091772;28;20450;-58
2022/03/25 07:52:55;;;;;;;0.93;0.90;;;;;;;19.80;23.04;95609.25;5091781;28;20512;-56
2022/03/25 07:55:23;;;;;;;1.20;1.10;;;;;;;19.49;24.64;95600.59;5091285;28;20468;-57
2022/03/25 07:57:53;;;;;;;1.67;1.57;;;;;;;19.96;23.01;95593.38;5091940;28;20425;-57
2022/03/25 08:00:21;;;;;;;0.90;0.90;;;;;;;20.95;22.06;95595.44;5091697;28;20481;-57
2022/03/25 08:02:52;;;;;;;0.87;0.73;;;;;;;21.19;21.58;95581.34;5091804;28;20559;-56
2022/03/25 08:05:21;;;;;;;2.63;1.13;;;;;;;20.31;22.40;95591.38;5092145;28;20507;-57
2022/03/25 08:07:52;;;;;;;2.07;1.87;;;;;;;20.34;22.99;95586.13;5091407;28;20515;-56
2022/03/25 08:10:24;;;;;;;0.90;0.90;;;;;;;20.34;21.89;95579.97;5091545;28;20477;-55
2022/03/25 08:12:54;;;;;;;1.10;1.10;;;;;;;20.96;23.29;95580.06;5091476;28;20498;-56
2022/03/25 08:15:23;;;;;;;2.03;0.90;;;;;;;21.76;22.21;95562.53;5091685;28;20421;-56
2022/03/25 08:17:54;;;;;;;0.87;0.87;;;;;;;22.43;21.04;95560.19;5091153;28;20428;-56
2022/03/25 08:20:28;;;;;;;0.83;0.83;;;;;;;21.97;21.59;95558.72;5091301;28;20479;-55
2022/03/25 08:22:58;;;;;;;1.33;1.33;;;;;;;21.45;21.68;95561.09;5091450;28;20483;-56
2022/03/25 08:28:15;;;;;;;0.50;0.50;;;;;;;22.36;21.12;95543.78;5091333;28;20520;-56
2022/03/25 08:30:45;;;;;;;2.50;2.00;;;;;;;21.62;21.34;95548.59;5091724;28;20452;-54
2022/03/25 08:33:15;;;;;;;2.60;2.40;;;;;;;20.15;22.51;95532.69;5093064;28;20452;-54
2022/03/25 08:35:44;;;;;;;4.23;1.13;;;;;;;21.20;22.93;95553.28;5095290;28;20463;-54
2022/03/25 08:38:13;;;;;;;1.93;1.17;;;;;;;22.28;22.17;95517.66;5095642;28;20471;-54
2022/03/25 08:40:43;;;;;;;0.90;0.90;;;;;;;22.81;21.11;95546.34;5095391;28;20455;-54
2022/03/25 08:43:32;;;;;;;0.93;0.83;;;;;;;22.75;21.18;95529.56;5095085;28;20447;-54
2022/03/25 08:46:01;;;;;;;2.63;1.00;;;;;;;23.23;21.79;95522.44;5094633;28;20477;-58
2022/03/25 08:48:30;;;;;;;2.37;1.23;;;;;;;23.92;20.92;95514.66;5094461;28;20511;-57
2022/03/25 08:50:58;;;;;;;7.90;1.10;;;;;;;23.99;20.30;95516.75;5095055;28;20455;-57
2022/03/25 08:53:27;;;;;;;23.63;2.00;;;;;;;24.13;20.02;95535.31;5095057;28;20427;-57
2022/03/25 08:56:02;;;;;;;0.90;0.90;;;;;;;24.78;20.18;95507.44;5095218;28;20428;-52
2022/03/25 08:58:30;;;;;;;1.57;1.47;;;;;;;25.60;22.12;95494.38;5094847;28;20822;-52
2022/03/25 09:00:59;;;;;;;0.60;0.53;;;;;;;26.15;18.99;95492.25;5094878;28;20468;-52
2022/03/25 09:03:27;;;;;;;1.03;1.00;;;;;;;24.76;18.15;95488.00;5095064;28;20880;-52
2022/03/25 09:05:56;;;;;;;0.80;0.80;;;;;;;24.87;17.99;95489.03;5094712;28;20439;-52
2022/03/25 09:08:24;;;;;;;0.70;0.70;;;;;;;25.58;17.74;95493.16;5094723;28;20544;-53
2022/03/25 09:10:54;;;;;;;0.70;0.70;;;;;;;26.99;18.35;95479.13;5094797;28;20447;-51
2022/03/25 09:13:24;;;;;;;2.20;1.43;;;;;;;26.13;16.98;95472.81;5094607;28;20999;-52
2022/03/25 09:15:52;;;;;;;0.60;0.50;;;;;;;27.00;16.63;95467.09;5094520;28;20428;-51
2022/03/25 09:18:21;;;;;;;2.93;0.77;;;;;;;26.49;16.71;95472.19;5094471;28;20428;-51
2022/03/25 09:20:49;;;;;;;3.50;1.00;;;;;;;26.27;17.64;95471.09;5094338;28;20781;-51
2022/03/25 09:23:18;;;;;;;0.80;0.80;;;;;;;24.65;18.00;95478.84;5094551;28;20514;-51
2022/03/25 09:25:46;;;;;;;1.33;1.07;;;;;;;24.75;16.73;95461.25;5094661;28;20512;-50
2022/03/25 09:28:15;;;;;;;3.00;1.50;;;;;;;24.20;14.35;95465.06;5094440;28;20512;-51
2022/03/25 09:30:45;;;;;;;0.93;0.87;;;;;;;24.75;17.04;95440.34;5094586;28;20860;-51
2022/03/25 09:33:13;;;;;;;1.13;1.13;;;;;;;24.01;16.72;95474.66;5094466;28;20861;-51
2022/03/25 09:35:42;;;;;;;1.63;1.53;;;;;;;23.92;15.98;95451.59;5094117;28;20428;-51
2022/03/25 09:38:12;;;;;;;1.83;1.43;;;;;;;23.98;15.28;95474.59;5094191;28;20436;-51
2022/03/25 09:40:42;;;;;;;11.80;1.80;;;;;;;24.28;14.70;95461.38;5094094;28;20476;-51
2022/03/25 09:43:11;;;;;;;1.20;1.20;;;;;;;24.64;15.58;95463.75;5094243;28;20514;-51
2022/03/25 09:45:40;;;;;;;1.60;0.80;;;;;;;24.06;15.15;95472.84;5093042;28;20924;-51
2022/03/25 09:48:11;;;;;;;1.03;0.93;;;;;;;25.04;14.93;95472.38;5094342;28;20925;-51
2022/03/25 09:50:40;;;;;;;1.57;0.90;;;;;;;24.76;14.84;95455.47;5093814;28;20467;-51
2022/03/25 09:53:30;;;;;;;0.80;0.70;;;;;;;24.05;15.43;95468.53;5093931;28;20437;-51
2022/03/25 09:55:59;;;;;;;0.90;0.80;;;;;;;24.55;14.96;95398.09;5093781;28;20482;-52
2022/03/25 09:58:28;;;;;;;0.87;0.87;;;;;;;26.14;16.12;95448.00;5093629;28;20424;-51
2022/03/25 10:00:59;;;;;;;0.70;0.70;;;;;;;25.78;14.03;95462.91;5093769;28;20456;-51
2022/03/25 10:03:36;;;;;;;10.43;1.20;;;;;;;25.61;14.41;95455.25;5093380;28;20528;-50
2022/03/25 10:06:10;;;;;;;2.50;0.90;;;;;;;25.51;14.11;95442.25;5092371;28;20429;-51
2022/03/25 10:08:45;;;;;;;0.73;0.60;;;;;;;25.93;12.72;95458.50;5092989;28;20459;-51
2022/03/25 10:11:21;;;;;;;0.73;0.70;;;;;;;26.36;12.82;95451.84;5093345;28;20440;-52
2022/03/25 10:13:54;;;;;;;4.50;2.07;;;;;;;24.62;13.47;95436.97;5093615;28;20436;-50
2022/03/25 10:16:27;;;;;;;1.40;1.30;;;;;;;24.29;14.36;95463.72;5092962;28;20515;-50
2022/03/25 10:18:58;;;;;;;2.27;1.00;;;;;;;24.84;14.10;95453.72;5093514;28;20432;-51
2022/03/25 10:21:27;;;;;;;0.90;0.90;;;;;;;25.83;14.56;95448.25;5092526;28;20440;-51
2022/03/25 10:23:55;;;;;;;1.27;0.90;;;;;;;25.78;14.43;95446.59;5092504;28;20550;-51
2022/03/25 10:26:36;;;;;;;0.83;0.70;;;;;;;25.97;12.41;95436.81;5093073;28;20464;-51
2022/03/25 10:29:21;;;;;;;1.13;1.03;;;;;;;26.42;13.90;95428.59;5093299;28;20424;-51
2022/03/25 10:32:07;;;;;;;0.70;0.70;;;;;;;25.99;13.91;95427.16;5093167;28;20463;-51
2022/03/25 10:34:38;;;;;;;1.50;1.40;;;;;;;26.74;12.16;95420.88;5093274;28;20425;-51
2022/03/25 10:37:09;;;;;;;1.43;1.33;;;;;;;26.75;13.59;95425.16;5092907;28;20452;-50
2022/03/25 10:39:38;;;;;;;1.03;0.90;;;;;;;25.37;12.94;95403.22;5093058;28;20890;-51
2022/03/25 10:42:09;;;;;;;0.87;0.87;;;;;;;24.49;13.02;95437.44;5092678;28;20880;-51
2022/03/25 10:44:40;;;;;;;5.73;1.07;;;;;;;24.26;14.00;95439.28;5092803;28;20416;-51
2022/03/25 10:47:24;;;;;;;1.70;0.97;;;;;;;24.40;13.44;95437.66;5092747;28;20428;-51
2022/03/25 10:49:57;;;;;;;1.20;1.10;;;;;;;25.78;13.24;95437.66;5092706;28;20475;-51
2022/03/25 10:52:30;;;;;;;0.73;0.50;;;;;;;26.54;12.01;95400.44;5092807;28;20428;-51
2022/03/25 10:55:20;;;;;;;1.23;1.00;;;;;;;26.38;13.16;95414.97;5091856;28;20562;-51
2022/03/25 10:57:56;;;;;;;2.80;2.53;;;;;;;24.71;12.96;95415.09;5092491;28;20437;-51
2022/03/25 11:00:25;;;;;;;1.27;1.17;;;;;;;24.74;13.24;95425.25;5091233;28;20572;-51
2022/03/25 11:02:54;;;;;;;1.80;1.70;;;;;;;25.33;12.93;95419.41;5092280;28;20479;-51
2022/03/25 11:05:26;;;;;;;3.23;1.43;;;;;;;24.70;13.30;95435.19;5092587;28;20451;-50
2022/03/25 11:07:55;;;;;;;4.13;0.40;;;;;;;25.08;13.35;95418.16;5092326;28;20517;-50
2022/03/25 11:10:23;;;;;;;1.07;0.73;;;;;;;25.04;13.20;95417.34;5092363;28;20456;-50
2022/03/25 11:12:52;;;;;;;1.07;0.67;;;;;;;24.24;13.50;95412.53;5092347;28;20516;-50
2022/03/25 11:15:22;;;;;;;3.67;0.50;;;;;;;24.47;13.95;95409.94;5091027;28;20424;-51
2022/03/25 11:17:50;;;;;;;1.40;0.60;;;;;;;24.34;13.29;95413.91;5092016;28;20463;-51
2022/03/25 11:20:22;;;;;;;0.87;0.87;;;;;;;24.33;12.58;95409.63;5092388;28;20416;-51
2022/03/25 11:23:05;;;;;;;1.23;0.90;;;;;;;25.87;13.14;95402.91;5092034;28;20694;-51
2022/03/25 11:25:39;;;;;;;0.80;0.80;;;;;;;25.39;12.68;95403.63;5092124;28;20923;-51
2022/03/25 11:28:16;;;;;;;1.10;1.00;;;;;;;25.59;12.23;95394.31;5091559;28;20800;-51
2022/03/25 11:30:44;;;;;;;1.37;1.30;;;;;;;25.81;12.99;95385.34;5091869;28;20494;-51
2022/03/25 11:33:13;;;;;;;0.87;0.87;;;;;;;24.82;13.13;95410.69;5092339;28;20429;-51
2022/03/25 11:35:42;;;;;;;1.13;1.00;;;;;;;25.27;12.10;95391.03;5091962;28;20459;-51
2022/03/25 11:38:23;;;;;;;1.53;1.23;;;;;;;26.32;12.88;95393.91;5091808;28;20929;-51
2022/03/25 11:40:53;;;;;;;1.17;0.97;;;;;;;26.47;12.89;95385.59;5090834;28;20464;-51
2022/03/25 11:43:25;;;;;;;1.43;0.90;;;;;;;26.33;12.65;95325.63;5091594;28;20480;-51
2022/03/25 11:46:06;;;;;;;7.03;1.03;;;;;;;26.19;11.84;95392.56;5091230;28;20432;-51
2022/03/25 11:48:38;;;;;;;1.00;0.80;;;;;;;26.53;12.13;95385.25;5091988;28;20456;-51
2022/03/25 11:51:28;;;;;;;1.37;1.27;;;;;;;27.10;12.95;95384.78;5091982;28;20495;-51
2022/03/25 11:53:58;;;;;;;1.77;1.47;;;;;;;26.38;12.31;95374.22;5091720;28;20527;-52
2022/03/25 11:56:46;;;;;;;1.90;1.03;;;;;;;26.60;12.55;95383.41;5091650;28;20467;-52
2022/03/25 11:59:16;;;;;;;1.80;1.03;;;;;;;25.19;11.92;95375.75;5091494;28;20436;-52